createdAt,value
2024-05-09T00:01:32.358Z,100.00
2024-05-09T00:04:01.918Z,100.00
2024-05-09T00:06:31.403Z,100.00
2024-05-09T00:09:00.762Z,100.00
2024-05-09T00:11:30.185Z,100.00
2024-05-09T00:13:59.608Z,100.00
2024-05-09T00:16:31.618Z,100.00
2024-05-09T00:19:01.066Z,100.00
2024-05-09T00:21:30.660Z,100.00
2024-05-09T00:24:00.071Z,100.00
2024-05-09T00:26:29.578Z,100.00
2024-05-09T00:28:59.109Z,100.00
2024-05-09T00:31:31.066Z,100.00
2024-05-09T00:34:00.752Z,100.00
2024-05-09T00:36:30.245Z,100.00
2024-05-09T00:38:59.577Z,100.00
2024-05-09T00:41:29.062Z,100.00
2024-05-09T00:43:58.521Z,100.00
2024-05-09T00:46:31.198Z,100.00
2024-05-09T00:49:00.760Z,100.00
2024-05-09T00:51:30.450Z,100.00
2024-05-09T00:54:00.073Z,100.00
2024-05-09T00:56:29.556Z,100.00
2024-05-09T00:58:59.125Z,100.00
2024-05-09T01:01:31.637Z,100.00
2024-05-09T01:04:02.070Z,100.00
2024-05-09T01:06:31.495Z,100.00
2024-05-09T01:09:00.851Z,100.00
2024-05-09T01:11:36.186Z,100.00
2024-05-09T01:14:05.736Z,100.00
2024-05-09T01:16:37.991Z,100.00
2024-05-09T01:19:08.240Z,100.00
2024-05-09T01:21:37.674Z,100.00
2024-05-09T01:24:09.805Z,100.00
2024-05-09T01:26:39.156Z,100.00
2024-05-09T01:29:08.570Z,100.00
2024-05-09T01:31:38.028Z,100.00
2024-05-09T01:34:07.494Z,100.00
2024-05-09T01:36:36.872Z,100.00
2024-05-09T01:39:08.945Z,100.00
2024-05-09T01:41:38.328Z,100.00
2024-05-09T01:44:08.066Z,100.00
2024-05-09T01:46:37.483Z,100.00
2024-05-09T01:49:07.958Z,100.00
2024-05-09T01:51:37.456Z,100.00
2024-05-09T01:54:09.485Z,100.00
2024-05-09T01:56:38.944Z,100.00
2024-05-09T01:59:10.401Z,100.00
2024-05-09T02:01:56.205Z,100.00
2024-05-09T02:04:27.253Z,100.00
2024-05-09T02:06:56.748Z,100.00
2024-05-09T02:09:28.717Z,100.00
2024-05-09T02:11:58.277Z,100.00
2024-05-09T02:14:28.057Z,100.00
2024-05-09T02:16:57.479Z,100.00
2024-05-09T02:19:26.913Z,100.00
2024-05-09T02:21:56.331Z,100.00
2024-05-09T02:24:28.393Z,100.00
2024-05-09T02:26:57.767Z,100.00
2024-05-09T02:29:27.270Z,100.00
2024-05-09T02:31:56.800Z,100.00
2024-05-09T02:34:26.281Z,100.00
2024-05-09T02:36:56.267Z,100.00
2024-05-09T02:39:25.820Z,100.00
2024-05-09T02:41:55.186Z,100.00
2024-05-09T02:44:22.028Z,100.00
2024-05-09T02:46:52.111Z,100.00
2024-05-09T02:49:19.032Z,100.00
2024-05-09T02:51:48.529Z,100.00
2024-05-09T02:54:15.278Z,100.00
2024-05-09T02:56:47.230Z,100.00
2024-05-09T02:59:14.606Z,100.00
2024-05-09T03:01:44.815Z,100.00
2024-05-09T03:04:11.746Z,100.00
2024-05-09T03:06:42.948Z,100.00
2024-05-09T03:09:09.848Z,100.00
2024-05-09T03:11:40.575Z,100.00
2024-05-09T03:14:10.110Z,100.00
2024-05-09T03:16:40.348Z,100.00
2024-05-09T03:19:07.223Z,100.00
2024-05-09T03:21:40.737Z,100.00
2024-05-09T03:24:07.750Z,100.00
2024-05-09T03:26:37.255Z,100.00
2024-05-09T03:29:04.160Z,100.00
2024-05-09T03:31:36.175Z,100.00
2024-05-09T03:34:03.096Z,100.00
2024-05-09T03:36:32.536Z,100.00
2024-05-09T03:39:01.883Z,100.00
2024-05-09T03:41:31.375Z,100.00
2024-05-09T03:44:00.898Z,100.00
2024-05-09T03:46:30.307Z,100.00
2024-05-09T03:48:59.794Z,100.00
2024-05-09T03:51:29.215Z,100.00
2024-05-09T03:53:56.067Z,100.00
2024-05-09T03:56:25.570Z,100.00
2024-05-09T03:58:52.486Z,100.00
2024-05-09T04:01:21.888Z,100.00
2024-05-09T04:03:48.827Z,100.00
2024-05-09T04:06:25.683Z,100.00
2024-05-09T04:08:52.446Z,100.00
2024-05-09T04:11:22.028Z,100.00
2024-05-09T04:13:49.018Z,100.00
2024-05-09T04:16:18.483Z,100.00
2024-05-09T04:18:45.327Z,100.00
2024-05-09T04:21:14.770Z,100.00
2024-05-09T04:23:44.239Z,100.00
2024-05-09T04:26:13.959Z,100.00
2024-05-09T04:28:40.880Z,100.00
2024-05-09T04:31:10.312Z,100.00
2024-05-09T04:33:37.240Z,100.00
2024-05-09T04:36:07.185Z,100.00
2024-05-09T04:38:34.032Z,100.00
2024-05-09T04:41:06.464Z,100.00
2024-05-09T04:43:35.190Z,100.00
2024-05-09T04:46:04.574Z,100.00
2024-05-09T04:48:31.450Z,100.00
2024-05-09T04:51:00.905Z,100.00
2024-05-09T04:53:27.769Z,100.00
2024-05-09T04:55:57.253Z,100.00
2024-05-09T04:58:26.767Z,100.00
2024-05-09T05:00:56.206Z,100.00
2024-05-09T05:03:23.272Z,100.00
2024-05-09T05:05:53.796Z,100.00
2024-05-09T05:08:21.025Z,100.00
2024-05-09T05:10:50.738Z,100.00
2024-05-09T05:13:20.765Z,100.00
2024-05-09T05:15:57.218Z,100.00
2024-05-09T05:18:25.644Z,100.00
2024-05-09T05:20:55.337Z,100.00
2024-05-09T05:23:25.577Z,100.00
2024-05-09T05:25:53.466Z,100.00
2024-05-09T05:28:23.918Z,100.00
2024-05-09T05:30:53.401Z,100.00
2024-05-09T05:33:23.451Z,100.00
2024-05-09T05:35:50.508Z,100.00
2024-05-09T05:38:23.769Z,100.00
2024-05-09T05:40:52.971Z,100.00
2024-05-09T05:43:22.678Z,100.00
2024-05-09T05:45:49.688Z,100.00
2024-05-09T05:48:21.811Z,100.00
2024-05-09T05:50:48.795Z,100.00
2024-05-09T05:53:18.303Z,100.00
2024-05-09T05:55:45.240Z,100.00
2024-05-09T05:58:15.226Z,100.00
2024-05-09T06:00:42.794Z,100.00
2024-05-09T06:03:13.454Z,100.00
2024-05-09T06:05:45.668Z,100.00
2024-05-09T06:08:15.186Z,100.00
2024-05-09T06:10:42.574Z,100.00
2024-05-09T06:13:13.748Z,100.00
2024-05-09T06:15:41.537Z,100.00
2024-05-09T06:18:12.499Z,100.00
2024-05-09T06:20:41.441Z,100.00
2024-05-09T06:23:14.305Z,100.00
2024-05-09T06:25:42.215Z,100.00
2024-05-09T06:28:11.839Z,100.00
2024-05-09T06:30:42.036Z,100.00
2024-05-09T06:33:15.312Z,100.00
2024-05-09T06:35:43.615Z,100.00
2024-05-09T06:38:15.871Z,100.00
2024-05-09T06:40:44.076Z,100.00
2024-05-09T06:43:16.351Z,100.00
2024-05-09T06:45:46.084Z,100.00
2024-05-09T06:48:15.768Z,100.00
2024-05-09T06:50:42.664Z,100.00
2024-05-09T06:53:12.026Z,100.00
2024-05-09T06:55:41.447Z,100.00
2024-05-09T06:58:11.598Z,100.00
2024-05-09T07:00:40.972Z,100.00
2024-05-09T07:03:12.949Z,100.00
2024-05-09T07:05:41.972Z,100.00
2024-05-09T07:08:11.861Z,100.00
2024-05-09T07:10:41.453Z,100.00
2024-05-09T07:13:11.790Z,100.00
2024-05-09T07:15:38.872Z,100.00
2024-05-09T07:18:13.736Z,100.00
2024-05-09T07:20:41.205Z,100.00
2024-05-09T07:23:11.610Z,100.00
2024-05-09T07:25:41.518Z,100.00
2024-05-09T07:28:13.710Z,100.00
2024-05-09T07:30:40.462Z,100.00
2024-05-09T07:33:10.019Z,100.00
2024-05-09T07:35:36.965Z,100.00
2024-05-09T07:38:06.805Z,100.00
2024-05-09T07:40:36.543Z,100.00
2024-05-09T07:43:11.503Z,100.00
2024-05-09T07:45:48.549Z,100.00
2024-05-09T07:52:37.562Z,100.00
2024-05-09T07:53:47.252Z,100.00
2024-05-09T07:56:18.561Z,100.00
2024-05-09T07:58:52.473Z,100.00
2024-05-09T08:01:19.744Z,100.00
2024-05-09T08:03:49.511Z,100.00
2024-05-09T08:06:16.501Z,100.00
2024-05-09T08:08:45.917Z,100.00
2024-05-09T08:11:12.768Z,100.00
2024-05-09T08:13:42.115Z,100.00
2024-05-09T08:16:11.634Z,100.00
2024-05-09T08:18:41.287Z,100.00
2024-05-09T08:21:08.197Z,100.00
2024-05-09T08:23:37.608Z,100.00
2024-05-09T08:26:04.927Z,100.00
2024-05-09T08:28:34.354Z,100.00
2024-05-09T08:31:04.224Z,100.00
2024-05-09T08:33:38.317Z,100.00
2024-05-09T08:36:05.727Z,100.00
2024-05-09T08:38:35.087Z,100.00
2024-05-09T08:41:03.723Z,100.00
2024-05-09T08:43:33.348Z,100.00
2024-05-09T08:46:00.367Z,100.00
2024-05-09T08:48:30.203Z,100.00
2024-05-09T08:51:01.427Z,100.00
2024-05-09T08:53:30.832Z,100.00
2024-05-09T08:56:00.772Z,100.00
2024-05-09T08:58:32.149Z,100.00
2024-05-09T09:01:00.228Z,100.00
2024-05-09T09:03:30.752Z,100.00
2024-05-09T09:06:02.589Z,100.00
2024-05-09T09:08:31.952Z,100.00
2024-05-09T09:10:59.426Z,100.00
2024-05-09T09:13:29.151Z,100.00
2024-05-09T09:15:58.865Z,100.00
2024-05-09T09:18:29.331Z,100.00
2024-05-09T09:20:56.632Z,100.00
2024-05-09T09:23:30.449Z,100.00
2024-05-09T09:25:58.738Z,100.00
2024-05-09T09:28:28.221Z,100.00
2024-05-09T09:31:01.418Z,100.00
2024-05-09T09:33:32.077Z,99.77
2024-05-09T09:35:59.244Z,98.63
2024-05-09T09:38:33.625Z,98.71
2024-05-09T09:41:01.758Z,97.19
2024-05-09T09:43:31.510Z,88.97
2024-05-09T09:45:59.920Z,83.87
2024-05-09T09:48:30.269Z,85.86
2024-05-09T09:50:57.472Z,79.57
2024-05-09T09:53:27.216Z,71.98
2024-05-09T09:55:56.786Z,72.31
2024-05-09T09:58:26.565Z,74.27
2024-05-09T10:00:53.419Z,69.37
2024-05-09T10:03:23.074Z,67.54
2024-05-09T10:05:50.086Z,72.10
2024-05-09T10:08:22.050Z,73.58
2024-05-09T10:10:49.007Z,70.42
2024-05-09T10:13:21.346Z,67.04
2024-05-09T10:15:51.620Z,67.04
2024-05-09T10:18:27.222Z,69.45
2024-05-09T10:20:56.374Z,64.95
2024-05-09T10:23:27.206Z,61.04
2024-05-09T10:26:04.567Z,58.87
2024-05-09T10:28:35.312Z,58.27
2024-05-09T10:31:06.160Z,57.52
2024-05-09T10:33:37.621Z,59.57
2024-05-09T10:36:07.744Z,54.21
2024-05-09T10:38:34.624Z,61.34
2024-05-09T10:41:05.676Z,55.70
2024-05-09T10:43:37.082Z,56.80
2024-05-09T10:46:07.291Z,60.63
2024-05-09T10:48:34.706Z,52.94
2024-05-09T10:51:04.200Z,58.85
2024-05-09T10:53:31.175Z,55.34
2024-05-09T10:56:01.336Z,63.97
2024-05-09T10:58:28.705Z,59.30
2024-05-09T11:01:02.456Z,58.13
2024-05-09T11:03:31.243Z,58.28
2024-05-09T11:06:00.721Z,55.93
2024-05-09T11:08:27.827Z,57.90
2024-05-09T11:10:59.254Z,58.15
2024-05-09T11:13:27.186Z,51.95
2024-05-09T11:15:56.608Z,51.04
2024-05-09T11:18:33.248Z,56.95
2024-05-09T11:21:02.999Z,54.07
2024-05-09T11:23:32.669Z,57.68
2024-05-09T11:25:59.580Z,65.13
2024-05-09T11:28:29.884Z,61.29
2024-05-09T11:31:05.434Z,61.45
2024-05-09T11:33:39.330Z,59.75
2024-05-09T11:36:06.728Z,57.82
2024-05-09T11:38:36.212Z,50.86
2024-05-09T11:41:03.349Z,50.53
2024-05-09T11:43:32.849Z,50.97
2024-05-09T11:46:00.313Z,50.55
2024-05-09T11:48:29.948Z,49.57
2024-05-09T11:50:59.525Z,44.68
2024-05-09T11:53:29.020Z,48.18
2024-05-09T11:55:55.766Z,46.53
2024-05-09T11:58:25.364Z,44.19
2024-05-09T12:00:57.833Z,45.55
2024-05-09T12:03:27.359Z,42.78
2024-05-09T12:05:54.272Z,40.60
2024-05-09T12:08:26.300Z,38.70
2024-05-09T12:10:53.497Z,38.79
2024-05-09T12:13:23.359Z,37.79
2024-05-09T12:15:50.181Z,35.93
2024-05-09T12:18:19.704Z,38.08
2024-05-09T12:20:46.624Z,36.54
2024-05-09T12:23:16.005Z,41.28
2024-05-09T12:25:45.390Z,41.08
2024-05-09T12:28:14.859Z,44.99
2024-05-09T12:30:42.063Z,42.84
2024-05-09T12:33:13.203Z,45.03
2024-05-09T12:35:43.235Z,44.06
2024-05-09T12:38:15.312Z,41.68
2024-05-09T12:40:45.320Z,40.58
2024-05-09T12:43:14.732Z,38.52
2024-05-09T12:45:41.525Z,40.16
2024-05-09T12:48:12.554Z,37.94
2024-05-09T12:50:40.651Z,40.77
2024-05-09T12:53:10.236Z,38.86
2024-05-09T12:55:44.809Z,37.04
2024-05-09T12:58:25.219Z,38.38
2024-05-09T13:00:52.635Z,40.83
2024-05-09T13:03:22.524Z,42.44
2024-05-09T13:05:49.749Z,37.81
2024-05-09T13:08:19.518Z,37.65
2024-05-09T13:10:46.705Z,37.54
2024-05-09T13:13:16.789Z,36.95
2024-05-09T13:15:46.535Z,35.13
2024-05-09T13:18:16.119Z,34.44
2024-05-09T13:20:42.887Z,37.29
2024-05-09T13:23:12.261Z,36.58
2024-05-09T13:25:40.085Z,38.05
2024-05-09T13:28:10.087Z,38.07
2024-05-09T13:30:40.895Z,37.38
2024-05-09T13:33:14.642Z,38.52
2024-05-09T13:35:46.698Z,37.87
2024-05-09T13:38:19.838Z,36.79
2024-05-09T13:40:47.211Z,36.88
2024-05-09T13:43:17.611Z,38.56
2024-05-09T13:45:44.843Z,42.33
2024-05-09T13:48:17.091Z,42.34
2024-05-09T13:50:46.215Z,41.42
2024-05-09T13:53:15.600Z,40.86
2024-05-09T13:55:42.552Z,43.20
2024-05-09T13:58:11.993Z,44.03
2024-05-09T14:00:46.194Z,42.98
2024-05-09T14:03:21.469Z,42.34
2024-05-09T14:05:50.098Z,43.60
2024-05-09T14:08:22.153Z,46.19
2024-05-09T14:10:50.012Z,39.35
2024-05-09T14:13:20.018Z,39.16
2024-05-09T14:15:47.091Z,38.35
2024-05-09T14:18:16.816Z,38.60
2024-05-09T14:20:46.333Z,42.61
2024-05-09T14:23:15.760Z,41.83
2024-05-09T14:25:43.935Z,37.23
2024-05-09T14:28:14.622Z,40.77
2024-05-09T14:30:41.911Z,38.73
2024-05-09T14:33:12.154Z,37.53
2024-05-09T14:35:39.577Z,40.23
2024-05-09T14:38:12.491Z,41.98
2024-05-09T14:40:43.086Z,43.45
2024-05-09T14:43:14.732Z,44.71
2024-05-09T14:45:43.120Z,48.32
2024-05-09T14:48:13.231Z,46.64
2024-05-09T14:50:40.914Z,45.54
2024-05-09T14:53:14.326Z,42.78
2024-05-09T14:55:42.949Z,40.03
2024-05-09T14:58:13.805Z,36.58
2024-05-09T15:00:46.771Z,38.81
2024-05-09T15:03:20.814Z,39.50
2024-05-09T15:05:48.767Z,37.22
2024-05-09T15:08:21.582Z,38.19
2024-05-09T15:10:50.114Z,37.05
2024-05-09T15:13:20.212Z,41.90
2024-05-09T15:15:47.412Z,42.27
2024-05-09T15:18:17.349Z,41.08
2024-05-09T15:20:44.787Z,45.03
2024-05-09T15:23:14.380Z,43.70
2024-05-09T15:25:44.713Z,42.68
2024-05-09T15:28:14.243Z,45.50
2024-05-09T15:30:45.428Z,43.12
2024-05-09T15:33:16.550Z,45.78
2024-05-09T15:35:44.777Z,44.96
2024-05-09T15:38:14.449Z,44.09
2024-05-09T15:40:44.265Z,41.71
2024-05-09T15:43:13.789Z,38.67
2024-05-09T15:45:41.507Z,38.72
2024-05-09T15:48:12.081Z,40.10
2024-05-09T15:50:41.450Z,41.65
2024-05-09T15:53:13.147Z,44.63
2024-05-09T15:55:43.227Z,45.71
2024-05-09T15:58:12.988Z,48.28
2024-05-09T16:00:42.699Z,47.28
2024-05-09T16:03:14.708Z,44.78
2024-05-09T16:05:43.435Z,44.30
2024-05-09T16:08:14.406Z,43.41
2024-05-09T16:10:46.041Z,43.58
2024-05-09T16:13:17.298Z,42.25
2024-05-09T16:15:44.682Z,41.32
2024-05-09T16:18:14.539Z,40.30
2024-05-09T16:20:43.227Z,38.77
2024-05-09T16:23:14.056Z,40.93
2024-05-09T16:25:46.270Z,42.25
2024-05-09T16:28:16.099Z,41.63
2024-05-09T16:30:42.953Z,42.11
2024-05-09T16:33:13.228Z,47.95
2024-05-09T16:35:40.503Z,48.88
2024-05-09T16:38:10.131Z,48.19
2024-05-09T16:40:40.184Z,46.63
2024-05-09T16:43:13.826Z,45.80
2024-05-09T16:45:41.743Z,46.59
2024-05-09T16:48:12.309Z,46.54
2024-05-09T16:50:39.265Z,45.69
2024-05-09T16:53:08.768Z,45.22
2024-05-09T16:55:36.174Z,43.31
2024-05-09T16:58:06.552Z,40.64
2024-05-09T17:00:41.368Z,40.09
2024-05-09T17:03:15.317Z,39.79
2024-05-09T17:05:43.369Z,40.05
2024-05-09T17:08:13.009Z,40.84
2024-05-09T17:10:39.850Z,41.32
2024-05-09T17:13:09.952Z,42.86
2024-05-09T17:15:42.310Z,42.67
2024-05-09T17:18:09.815Z,41.75
2024-05-09T17:20:39.283Z,44.36
2024-05-09T17:23:12.372Z,49.21
2024-05-09T17:25:42.222Z,50.38
2024-05-09T17:28:09.471Z,48.17
2024-05-09T17:30:42.831Z,42.94
2024-05-09T17:33:11.421Z,42.93
2024-05-09T17:35:41.948Z,42.68
2024-05-09T17:38:09.090Z,42.15
2024-05-09T17:40:39.371Z,41.57
2024-05-09T17:43:08.627Z,40.86
2024-05-09T17:45:42.554Z,40.81
2024-05-09T17:48:10.792Z,42.99
2024-05-09T17:50:41.989Z,42.80
2024-05-09T17:53:09.270Z,43.28
2024-05-09T17:55:38.724Z,45.32
2024-05-09T17:58:06.036Z,46.37
2024-05-09T18:00:40.043Z,48.29
2024-05-09T18:03:12.685Z,50.94
2024-05-09T18:05:44.417Z,55.10
2024-05-09T18:08:11.898Z,57.97
2024-05-09T18:10:42.499Z,61.12
2024-05-09T18:13:10.614Z,62.04
2024-05-09T18:15:40.576Z,64.63
2024-05-09T18:18:08.140Z,67.66
2024-05-09T18:20:44.426Z,68.74
2024-05-09T18:23:14.154Z,71.17
2024-05-09T18:25:44.652Z,73.61
2024-05-09T18:28:11.491Z,78.28
2024-05-09T18:30:41.549Z,78.75
2024-05-09T18:33:09.599Z,79.54
2024-05-09T18:35:41.928Z,81.64
2024-05-09T18:38:08.940Z,83.16
2024-05-09T18:40:39.756Z,84.60
2024-05-09T18:43:09.089Z,87.01
2024-05-09T18:45:39.218Z,87.62
2024-05-09T18:48:08.238Z,90.00
2024-05-09T18:50:41.760Z,91.71
2024-05-09T18:53:09.863Z,92.86
2024-05-09T18:55:39.464Z,93.60
2024-05-09T18:58:06.542Z,94.21
2024-05-09T19:00:38.949Z,96.13
2024-05-09T19:03:10.506Z,98.56
2024-05-09T19:05:46.020Z,98.04
2024-05-09T19:08:14.412Z,98.92
2024-05-09T19:10:45.645Z,97.53
2024-05-09T19:13:14.162Z,97.03
2024-05-09T19:15:44.947Z,97.48
2024-05-09T19:18:13.263Z,97.02
2024-05-09T19:20:46.352Z,96.58
2024-05-09T19:23:13.207Z,94.99
2024-05-09T19:25:42.803Z,94.34
2024-05-09T19:28:09.638Z,95.75
2024-05-09T19:30:41.908Z,96.08
2024-05-09T19:33:11.004Z,96.88
2024-05-09T19:35:41.620Z,98.13
2024-05-09T19:38:11.140Z,98.77
2024-05-09T19:40:40.793Z,99.15
2024-05-09T19:43:07.781Z,99.31
2024-05-09T19:45:37.308Z,98.72
2024-05-09T19:48:05.428Z,100.00
2024-05-09T19:50:41.879Z,100.00
2024-05-09T19:53:14.014Z,100.00
2024-05-09T19:55:43.489Z,100.00
2024-05-09T19:58:10.929Z,100.00
2024-05-09T20:00:43.118Z,100.00
2024-05-09T20:03:11.324Z,100.00
2024-05-09T20:05:41.016Z,100.00
2024-05-09T20:08:08.176Z,100.00
2024-05-09T20:10:40.475Z,100.00
2024-05-09T20:13:08.213Z,100.00
2024-05-09T20:15:38.778Z,100.00
2024-05-09T20:18:06.566Z,100.00
2024-05-09T20:20:41.213Z,100.00
2024-05-09T20:23:10.316Z,100.00
2024-05-09T20:25:42.480Z,100.00
2024-05-09T20:28:10.264Z,100.00
2024-05-09T20:30:39.945Z,100.00
2024-05-09T20:33:08.221Z,100.00
2024-05-09T20:35:38.730Z,100.00
2024-05-09T20:38:05.610Z,100.00
2024-05-09T20:40:38.258Z,100.00
2024-05-09T20:43:09.664Z,100.00
2024-05-09T20:45:40.178Z,100.00
2024-05-09T20:48:08.994Z,100.00
2024-05-09T20:50:41.534Z,100.00
2024-05-09T20:53:10.327Z,100.00
2024-05-09T20:55:39.792Z,100.00
2024-05-09T20:58:10.108Z,100.00
2024-05-09T21:00:43.218Z,100.00
2024-05-09T21:03:13.151Z,100.00
2024-05-09T21:05:43.463Z,100.00
2024-05-09T21:08:10.394Z,100.00
2024-05-09T21:10:39.937Z,100.00
2024-05-09T21:13:09.652Z,100.00
2024-05-09T21:15:39.214Z,100.00
2024-05-09T21:18:06.089Z,100.00
2024-05-09T21:20:37.386Z,100.00
2024-05-09T21:23:04.455Z,100.00
2024-05-09T21:25:33.913Z,100.00
2024-05-09T21:28:01.146Z,100.00
2024-05-09T21:30:41.261Z,100.00
2024-05-09T21:33:11.900Z,100.00
2024-05-09T21:35:43.391Z,100.00
2024-05-09T21:38:10.582Z,100.00
2024-05-09T21:40:40.070Z,100.00
2024-05-09T21:43:07.827Z,100.00
2024-05-09T21:45:40.218Z,100.00
2024-05-09T21:48:08.204Z,100.00
2024-05-09T21:50:41.105Z,100.00
2024-05-09T21:53:09.475Z,100.00
2024-05-09T21:55:38.954Z,100.00
2024-05-09T21:58:05.809Z,100.00
2024-05-09T22:00:38.070Z,100.00
2024-05-09T22:03:10.109Z,100.00
2024-05-09T22:05:43.432Z,100.00
2024-05-09T22:08:10.777Z,100.00
2024-05-09T22:10:40.283Z,100.00
2024-05-09T22:13:08.014Z,100.00
2024-05-09T22:15:40.025Z,100.00
2024-05-09T22:18:11.160Z,100.00
2024-05-09T22:20:44.874Z,100.00
2024-05-09T22:23:13.084Z,100.00
2024-05-09T22:25:42.608Z,100.00
2024-05-09T22:28:09.882Z,100.00
2024-05-09T22:30:40.375Z,100.00
2024-05-09T22:33:11.490Z,100.00
2024-05-09T22:35:41.893Z,100.00
2024-05-09T22:38:08.847Z,100.00
2024-05-09T22:40:47.404Z,100.00
2024-05-09T22:43:21.480Z,100.00
2024-05-09T22:45:53.741Z,100.00
2024-05-09T22:48:24.276Z,100.00
2024-05-09T22:50:54.434Z,100.00
2024-05-09T22:53:21.854Z,100.00
2024-05-09T22:55:51.264Z,100.00
2024-05-09T22:58:19.061Z,100.00
2024-05-09T23:00:48.599Z,100.00
2024-05-09T23:03:16.568Z,100.00
2024-05-09T23:05:48.680Z,100.00
2024-05-09T23:08:15.414Z,100.00
2024-05-09T23:10:44.883Z,100.00
2024-05-09T23:13:11.726Z,100.00
2024-05-09T23:15:41.295Z,100.00
2024-05-09T23:18:08.366Z,100.00
2024-05-09T23:20:39.875Z,100.00
2024-05-09T23:23:11.404Z,100.00
2024-05-09T23:25:42.074Z,100.00
2024-05-09T23:28:09.287Z,100.00
2024-05-09T23:30:40.816Z,100.00
2024-05-09T23:33:09.846Z,100.00
2024-05-09T23:35:39.599Z,100.00
2024-05-09T23:38:06.333Z,100.00
2024-05-09T23:40:40.787Z,100.00
2024-05-09T23:43:09.242Z,100.00
2024-05-09T23:45:39.164Z,100.00
2024-05-09T23:48:06.896Z,100.00
2024-05-09T23:50:38.511Z,100.00
2024-05-09T23:53:10.252Z,100.00
2024-05-09T23:55:40.560Z,100.00
2024-05-09T23:58:11.327Z,100.00
